Time;durP1;ratioP1;P1;durP2;ratioP2;P2;SDS_P1;SDS_P2;PMS_P1;PMS_P2;Temp;Humidity;BMP_temperature;BMP_pressure;BME280_temperature;BME280_humidity;BME280_pressure;Samples;Min_cycle;Max_cycle;Signal;HPM_P1;HPM_P2
2023/05/12 00:01:44;;;;;;;4.82;2.08;;;;;;;14.39;85.37;101488.44;7356666;19;20009;-64
2023/05/12 00:04:11;;;;;;;7.72;2.88;;;;;;;14.39;86.71;101493.75;7360641;19;20014;-65
2023/05/12 00:06:38;;;;;;;3.20;2.10;;;;;;;14.41;87.96;101491.78;7357651;19;20010;-64
2023/05/12 00:09:06;;;;;;;4.47;2.17;;;;;;;14.39;88.14;101493.75;7356141;19;21783;-64
2023/05/12 00:11:33;;;;;;;4.20;1.95;;;;;;;14.36;88.75;101487.91;7360603;19;20039;-64
2023/05/12 00:14:01;;;;;;;4.22;2.83;;;;;;;14.35;87.82;101491.53;7359149;19;20908;-64
2023/05/12 00:16:28;;;;;;;4.30;2.22;;;;;;;14.35;87.58;101494.19;7355753;19;20021;-65
2023/05/12 00:18:55;;;;;;;4.25;1.80;;;;;;;14.32;86.38;101487.41;7359580;19;21048;-64
2023/05/12 00:21:22;;;;;;;3.05;1.70;;;;;;;14.28;85.51;101487.88;7360208;19;21769;-64
2023/05/12 00:23:49;;;;;;;3.78;1.90;;;;;;;14.22;85.65;101489.34;7359718;19;20014;-65
2023/05/12 00:26:17;;;;;;;4.63;2.15;;;;;;;14.12;86.12;101492.13;7360082;19;20523;-64
2023/05/12 00:28:44;;;;;;;5.25;2.67;;;;;;;14.06;86.81;101490.13;7359766;19;20022;-65
2023/05/12 00:31:11;;;;;;;4.95;2.13;;;;;;;13.98;87.06;101491.88;7357416;19;20047;-64
2023/05/12 00:33:38;;;;;;;2.97;1.98;;;;;;;13.94;88.00;101493.19;7357096;19;20014;-63
2023/05/12 00:36:06;;;;;;;4.15;2.28;;;;;;;13.95;87.31;101501.00;7358661;19;20165;-64
2023/05/12 00:38:35;;;;;;;5.68;2.22;;;;;;;13.91;87.68;101493.53;7358720;19;20014;-65
2023/05/12 00:41:03;;;;;;;3.72;2.20;;;;;;;13.91;88.65;101502.31;7357374;19;20018;-65
2023/05/12 00:43:30;;;;;;;5.32;2.60;;;;;;;13.91;88.87;101499.66;7359557;19;20013;-65
2023/05/12 00:45:59;;;;;;;4.57;2.80;;;;;;;13.92;89.19;101501.28;7354721;19;20495;-64
2023/05/12 00:48:26;;;;;;;5.85;2.80;;;;;;;13.90;88.41;101502.44;7359510;19;20053;-64
2023/05/12 00:50:54;;;;;;;7.35;3.72;;;;;;;13.89;88.63;101498.13;7356057;19;20029;-65
2023/05/12 00:53:21;;;;;;;6.03;3.20;;;;;;;13.90;88.80;101508.56;7358159;19;21130;-66
2023/05/12 00:55:48;;;;;;;8.38;3.53;;;;;;;13.91;88.91;101504.94;7359354;19;20032;-64
2023/05/12 00:58:15;;;;;;;7.43;3.80;;;;;;;13.90;88.29;101511.22;7359860;19;20491;-64
2023/05/12 01:00:45;;;;;;;6.70;3.47;;;;;;;13.91;88.31;101510.25;7353301;19;20019;-64
2023/05/12 01:03:13;;;;;;;5.05;3.00;;;;;;;13.87;88.66;101516.81;7358837;19;20015;-66
2023/05/12 01:05:48;;;;;;;5.00;3.28;;;;;;;13.87;87.98;101508.88;7355459;19;20014;-64
2023/05/12 01:08:17;;;;;;;4.78;2.97;;;;;;;13.85;88.12;101505.56;7359489;19;21897;-64
2023/05/12 01:10:45;;;;;;;5.95;3.17;;;;;;;13.82;88.35;101505.88;7357088;19;20010;-64
2023/05/12 01:13:12;;;;;;;6.28;3.00;;;;;;;13.83;89.16;101520.75;7355790;19;20027;-64
2023/05/12 01:15:46;;;;;;;5.95;3.53;;;;;;;13.83;89.61;101514.63;7356011;19;20480;-64
2023/05/12 01:18:17;;;;;;;6.13;3.45;;;;;;;13.80;89.66;101507.03;7358243;19;20014;-66
2023/05/12 01:20:47;;;;;;;5.75;3.33;;;;;;;13.82;88.62;101518.25;7360901;19;20048;-63
2023/05/12 01:23:18;;;;;;;5.10;2.63;;;;;;;13.77;88.46;101518.72;7362911;19;20328;-65
2023/05/12 01:25:49;;;;;;;5.10;3.25;;;;;;;13.77;88.45;101517.91;7361408;19;20964;-64
2023/05/12 01:28:18;;;;;;;7.60;3.40;;;;;;;13.75;88.68;101523.38;7363021;19;20940;-64
2023/05/12 01:30:46;;;;;;;9.27;3.40;;;;;;;13.75;88.57;101526.00;7361551;19;20014;-64
2023/05/12 01:33:14;;;;;;;6.05;3.83;;;;;;;13.70;88.55;101526.47;7366360;19;20483;-65
2023/05/12 01:35:42;;;;;;;5.18;3.08;;;;;;;13.65;88.58;101525.28;7361196;19;20014;-63
2023/05/12 01:38:10;;;;;;;5.65;2.95;;;;;;;13.64;89.19;101523.63;7365122;19;20018;-64
2023/05/12 01:40:37;;;;;;;6.30;3.50;;;;;;;13.59;89.03;101529.38;7364160;19;20029;-65
2023/05/12 01:43:04;;;;;;;4.47;3.38;;;;;;;13.59;89.33;101532.03;7363158;19;20140;-64
2023/05/12 01:45:32;;;;;;;7.93;3.53;;;;;;;13.57;89.19;101531.34;7362208;19;20014;-65
2023/05/12 01:48:00;;;;;;;6.25;3.60;;;;;;;13.54;90.00;101533.47;7363124;19;20093;-65
2023/05/12 01:50:28;;;;;;;6.35;3.70;;;;;;;13.53;90.44;101531.81;7363011;19;20022;-64
2023/05/12 01:52:57;;;;;;;7.63;3.70;;;;;;;13.51;90.47;101557.59;7364806;19;20047;-65
2023/05/12 01:55:25;;;;;;;7.07;3.65;;;;;;;13.51;91.33;101531.16;7356729;19;20023;-63
2023/05/12 01:57:53;;;;;;;8.02;4.43;;;;;;;13.53;90.86;101540.56;7362926;19;20022;-64
2023/05/12 02:00:24;;;;;;;6.70;3.85;;;;;;;13.52;90.62;101538.91;7363490;19;20081;-64
2023/05/12 02:02:53;;;;;;;9.40;3.83;;;;;;;13.53;90.14;101548.50;7365278;19;20014;-63
2023/05/12 02:05:21;;;;;;;8.15;4.43;;;;;;;13.54;90.85;101544.03;7361936;19;20097;-64
2023/05/12 02:07:50;;;;;;;9.73;4.95;;;;;;;13.54;90.90;101536.13;7361395;19;20014;-65
2023/05/12 02:10:22;;;;;;;10.02;4.32;;;;;;;13.54;90.69;101552.81;7362106;19;20801;-64
2023/05/12 02:12:51;;;;;;;8.40;5.43;;;;;;;13.50;90.70;101538.25;7360138;19;20022;-65
2023/05/12 02:15:19;;;;;;;11.13;5.07;;;;;;;13.51;91.64;101537.22;7359714;19;20010;-65
2023/05/12 02:17:49;;;;;;;9.90;5.53;;;;;;;13.51;91.11;101537.22;7362123;19;20082;-66
2023/05/12 02:20:17;;;;;;;11.98;5.78;;;;;;;13.45;91.25;101542.31;7362250;19;20022;-64
2023/05/12 02:22:45;;;;;;;12.55;7.20;;;;;;;13.41;92.37;101551.56;7363713;19;20023;-64
2023/05/12 02:25:12;;;;;;;16.95;8.07;;;;;;;13.39;92.62;101550.88;7359958;19;20847;-63
2023/05/12 02:27:40;;;;;;;16.65;8.43;;;;;;;13.36;93.37;101551.19;7362910;19;20014;-65
2023/05/12 02:30:08;;;;;;;16.48;8.65;;;;;;;13.34;94.03;101548.69;7358706;19;20724;-64
2023/05/12 02:32:36;;;;;;;16.40;8.73;;;;;;;13.34;94.37;101559.25;7357688;19;20025;-63
2023/05/12 02:35:05;;;;;;;16.88;8.60;;;;;;;13.36;93.60;101557.28;7362010;19;20688;-63
2023/05/12 02:37:33;;;;;;;25.92;9.25;;;;;;;13.28;93.66;101568.63;7364452;19;20014;-63
2023/05/12 02:40:01;;;;;;;15.52;8.57;;;;;;;13.16;93.69;101564.53;7361461;19;20019;-64
2023/05/12 02:42:34;;;;;;;14.65;8.18;;;;;;;13.00;94.11;101571.47;7363482;19;20010;-64
2023/05/12 02:45:02;;;;;;;14.88;7.88;;;;;;;12.92;94.47;101574.00;7358081;19;20471;-65
2023/05/12 02:47:31;;;;;;;20.27;9.13;;;;;;;12.88;95.06;101576.13;7362089;19;20402;-63
2023/05/12 02:49:59;;;;;;;20.85;9.35;;;;;;;12.84;95.36;101574.78;7359750;19;20098;-64
2023/05/12 02:52:26;;;;;;;20.52;8.38;;;;;;;12.84;95.63;101585.34;7357878;19;20035;-64
2023/05/12 02:54:55;;;;;;;17.50;8.93;;;;;;;12.81;95.70;101586.44;7362073;19;20050;-63
2023/05/12 02:57:22;;;;;;;17.38;9.02;;;;;;;12.74;95.13;101585.41;7362351;19;20736;-64
2023/05/12 02:59:50;;;;;;;17.17;8.15;;;;;;;12.77;95.62;101590.38;7357204;19;20046;-64
2023/05/12 03:02:18;;;;;;;16.98;8.75;;;;;;;12.79;96.47;101585.78;7362045;19;20014;-65
2023/05/12 03:04:45;;;;;;;25.55;9.20;;;;;;;12.81;95.51;101599.66;7360332;19;20500;-64
2023/05/12 03:07:12;;;;;;;16.55;8.30;;;;;;;12.78;94.34;101593.84;7363780;19;20436;-63
2023/05/12 03:09:42;;;;;;;14.40;7.32;;;;;;;12.72;94.79;101603.19;7360217;19;20019;-64
2023/05/12 03:12:09;;;;;;;23.02;8.60;;;;;;;12.71;93.83;101600.69;7363068;19;20561;-64
2023/05/12 03:14:36;;;;;;;15.85;8.30;;;;;;;12.72;94.01;101600.53;7362557;19;20489;-64
2023/05/12 03:17:04;;;;;;;16.70;8.55;;;;;;;12.72;93.75;101602.34;7361778;19;20760;-63
2023/05/12 03:19:31;;;;;;;17.65;9.35;;;;;;;12.71;93.75;101606.81;7358882;19;20024;-64
2023/05/12 03:21:58;;;;;;;17.27;8.73;;;;;;;12.75;93.89;101602.88;7361386;19;20014;-64
2023/05/12 03:24:26;;;;;;;15.57;8.80;;;;;;;12.76;93.14;101606.34;7361999;19;20060;-64
2023/05/12 03:26:53;;;;;;;16.98;8.68;;;;;;;12.80;93.19;101610.34;7361387;19;20039;-64
2023/05/12 03:29:21;;;;;;;16.02;8.80;;;;;;;12.80;93.23;101608.56;7361374;19;20020;-64
2023/05/12 03:31:48;;;;;;;16.42;8.27;;;;;;;12.79;93.24;101606.91;7360566;19;20020;-64
2023/05/12 03:34:15;;;;;;;15.55;8.95;;;;;;;12.80;92.34;101607.72;7360663;19;20059;-65
2023/05/12 03:36:43;;;;;;;20.85;9.45;;;;;;;12.81;93.10;101618.13;7360769;19;20389;-64
2023/05/12 03:39:11;;;;;;;16.25;8.35;;;;;;;12.85;93.48;101616.03;7362555;19;20021;-63
2023/05/12 03:41:38;;;;;;;19.25;9.48;;;;;;;12.87;92.42;101611.44;7363006;19;20026;-64
2023/05/12 03:44:07;;;;;;;17.98;9.10;;;;;;;12.92;93.38;101616.28;7362001;19;20006;-65
2023/05/12 03:46:34;;;;;;;16.23;8.90;;;;;;;12.97;93.55;101620.13;7357595;19;20010;-64
2023/05/12 03:49:02;;;;;;;18.45;9.57;;;;;;;13.02;92.11;101623.16;7356135;19;20015;-64
2023/05/12 03:51:29;;;;;;;18.83;10.13;;;;;;;13.04;91.52;101626.50;7359401;19;20165;-65
2023/05/12 03:53:57;;;;;;;17.15;9.15;;;;;;;13.07;91.27;101630.63;7360184;19;20015;-66
2023/05/12 03:56:25;;;;;;;19.65;9.77;;;;;;;13.05;91.16;101624.69;7360654;19;20019;-64
2023/05/12 03:58:52;;;;;;;22.27;10.77;;;;;;;13.04;90.93;101631.78;7354992;19;20510;-64
2023/05/12 04:01:20;;;;;;;22.10;10.48;;;;;;;13.01;90.76;101639.16;7357779;19;20043;-64
2023/05/12 04:03:47;;;;;;;23.55;10.80;;;;;;;12.90;89.66;101639.38;7361635;19;20038;-64
2023/05/12 04:06:15;;;;;;;34.67;11.57;;;;;;;12.90;89.48;101639.38;7360325;19;20006;-64
2023/05/12 04:08:42;;;;;;;22.25;9.95;;;;;;;12.81;89.61;101638.44;7359600;19;20014;-64
2023/05/12 04:11:09;;;;;;;21.73;9.23;;;;;;;12.78;88.92;101641.38;7358853;19;20015;-64
2023/05/12 04:13:37;;;;;;;22.23;9.93;;;;;;;12.78;89.05;101642.22;7361390;19;20025;-65
2023/05/12 04:16:05;;;;;;;23.17;10.10;;;;;;;12.82;89.21;101645.38;7352992;19;20014;-64
2023/05/12 04:18:34;;;;;;;23.65;10.77;;;;;;;12.83;88.81;101639.13;7358965;19;20047;-64
2023/05/12 04:21:02;;;;;;;20.83;10.52;;;;;;;12.85;89.54;101645.06;7356341;19;20161;-63
2023/05/12 04:23:29;;;;;;;23.00;10.98;;;;;;;12.88;89.74;101638.69;7361495;19;20018;-64
2023/05/12 04:25:57;;;;;;;26.15;10.85;;;;;;;12.89;89.62;101649.13;7360312;19;20047;-63
2023/05/12 04:28:24;;;;;;;20.33;9.93;;;;;;;12.91;89.51;101647.13;7359140;19;21660;-63
2023/05/12 04:30:54;;;;;;;22.50;11.05;;;;;;;12.90;90.14;101653.41;7357325;19;20745;-64
2023/05/12 04:33:21;;;;;;;21.55;9.57;;;;;;;12.91;89.69;101656.88;7362607;19;20035;-64
2023/05/12 04:35:54;;;;;;;18.77;8.60;;;;;;;12.90;89.24;101657.88;7360162;19;20051;-63
2023/05/12 04:38:21;;;;;;;20.63;8.85;;;;;;;12.84;89.05;101654.00;7363195;19;20022;-64
2023/05/12 04:40:49;;;;;;;20.83;8.38;;;;;;;12.82;88.91;101658.59;7359906;19;20015;-65
2023/05/12 04:43:16;;;;;;;17.52;7.82;;;;;;;12.79;88.67;101649.16;7363365;19;20085;-64
2023/05/12 04:45:46;;;;;;;17.10;7.63;;;;;;;12.82;89.27;101662.06;7352850;19;20014;-65
2023/05/12 04:48:13;;;;;;;17.13;7.40;;;;;;;12.81;89.04;101662.19;7359646;19;20079;-64
2023/05/12 04:50:41;;;;;;;20.48;7.65;;;;;;;12.83;89.11;101662.91;7357025;19;20018;-64
2023/05/12 04:53:08;;;;;;;16.88;7.55;;;;;;;12.82;88.56;101666.50;7364142;19;20039;-64
2023/05/12 04:55:37;;;;;;;20.42;7.93;;;;;;;12.81;88.46;101673.59;7357917;19;20010;-65
2023/05/12 04:58:04;;;;;;;14.25;6.85;;;;;;;12.84;88.63;101669.84;7361227;19;20707;-64
2023/05/12 05:00:32;;;;;;;17.10;8.02;;;;;;;12.80;88.70;101671.94;7356283;19;20522;-64
2023/05/12 05:02:59;;;;;;;20.50;7.07;;;;;;;12.81;89.60;101672.78;7359504;19;20014;-63
2023/05/12 05:05:27;;;;;;;14.20;7.10;;;;;;;12.84;88.72;101677.78;7356812;19;20035;-64
2023/05/12 05:07:54;;;;;;;18.77;7.82;;;;;;;12.84;89.39;101670.69;7357980;19;20018;-64
2023/05/12 05:10:22;;;;;;;17.45;7.70;;;;;;;12.90;89.16;101674.53;7355353;19;20015;-65
2023/05/12 05:12:49;;;;;;;16.02;6.90;;;;;;;12.92;88.59;101688.44;7358914;19;20017;-66
2023/05/12 05:15:16;;;;;;;19.77;6.97;;;;;;;12.89;88.75;101686.09;7355901;19;20015;-65
2023/05/12 05:17:48;;;;;;;19.25;8.10;;;;;;;12.90;88.67;101694.84;7358205;19;20028;-65
2023/05/12 05:20:16;;;;;;;14.02;6.82;;;;;;;12.82;88.86;101693.75;7356839;19;20006;-65
2023/05/12 05:22:45;;;;;;;15.90;7.70;;;;;;;12.74;89.33;101698.94;7355177;19;20055;-64
2023/05/12 05:25:13;;;;;;;12.95;5.90;;;;;;;12.75;89.37;101702.41;7355036;19;20015;-64
2023/05/12 05:27:41;;;;;;;14.57;6.68;;;;;;;12.78;89.61;101707.41;7358552;19;20378;-65
2023/05/12 05:30:09;;;;;;;15.70;6.45;;;;;;;12.80;89.46;101706.25;7354492;19;20701;-65
2023/05/12 05:32:39;;;;;;;14.70;6.38;;;;;;;12.79;89.67;101704.63;7357007;19;20487;-65
2023/05/12 05:35:07;;;;;;;17.88;5.95;;;;;;;12.78;90.03;101708.25;7360113;19;20022;-66
2023/05/12 05:37:34;;;;;;;13.90;6.28;;;;;;;12.81;90.08;101715.03;7358923;19;20130;-66
2023/05/12 05:40:03;;;;;;;17.58;6.20;;;;;;;12.80;89.90;101710.72;7357450;19;20413;-65
2023/05/12 05:42:32;;;;;;;12.27;6.10;;;;;;;12.85;90.52;101711.94;7358847;19;20011;-64
2023/05/12 05:45:01;;;;;;;15.27;7.40;;;;;;;12.90;90.65;101710.69;7356323;19;20022;-65
2023/05/12 05:47:31;;;;;;;16.33;6.60;;;;;;;12.94;90.79;101720.00;7357500;19;20019;-65
2023/05/12 05:50:00;;;;;;;12.38;6.15;;;;;;;12.96;91.05;101710.94;7356646;19;20568;-65
2023/05/12 05:52:28;;;;;;;17.67;6.93;;;;;;;13.03;90.13;101717.31;7358845;19;20847;-65
2023/05/12 05:54:56;;;;;;;20.25;6.72;;;;;;;13.08;90.64;101711.56;7359163;19;20034;-64
2023/05/12 05:57:27;;;;;;;13.57;6.25;;;;;;;13.11;90.93;101713.91;7357890;19;20040;-65
2023/05/12 05:59:54;;;;;;;15.00;6.68;;;;;;;13.20;89.71;101719.19;7355143;19;20010;-65
2023/05/12 06:02:22;;;;;;;15.07;6.07;;;;;;;13.26;90.22;101718.59;7357553;19;20015;-65
2023/05/12 06:04:51;;;;;;;14.32;6.28;;;;;;;13.32;90.25;101726.91;7357948;19;20010;-65
2023/05/12 06:07:21;;;;;;;13.85;6.53;;;;;;;13.35;90.01;101723.97;7363141;19;20049;-64
2023/05/12 06:09:55;;;;;;;14.98;6.65;;;;;;;13.41;89.40;101731.31;7365793;19;20035;-64
2023/05/12 06:12:24;;;;;;;12.93;5.78;;;;;;;13.46;88.87;101735.16;7367491;19;20007;-65
2023/05/12 06:14:53;;;;;;;12.35;5.38;;;;;;;13.53;89.12;101738.03;7362625;19;20018;-65
2023/05/12 06:17:29;;;;;;;14.25;5.72;;;;;;;13.56;88.96;101733.28;7362895;19;20049;-65
2023/05/12 06:20:08;;;;;;;13.32;6.63;;;;;;;13.65;88.79;101731.56;7363240;19;20024;-65
2023/05/12 06:22:55;;;;;;;13.23;5.85;;;;;;;13.70;88.87;101739.88;7364339;19;20121;-64
2023/05/12 06:25:23;;;;;;;11.98;6.07;;;;;;;13.76;90.12;101736.66;7362593;19;20015;-65
2023/05/12 06:27:51;;;;;;;10.77;5.32;;;;;;;13.82;89.16;101728.06;7365536;19;20048;-69
2023/05/12 06:30:21;;;;;;;10.68;5.10;;;;;;;13.89;87.86;101737.09;7363097;19;20014;-63
2023/05/12 06:32:50;;;;;;;11.43;5.30;;;;;;;13.92;87.42;101743.88;7363322;19;20010;-65
2023/05/12 06:35:23;;;;;;;9.48;4.30;;;;;;;13.93;87.37;101742.88;7360511;19;20021;-64
2023/05/12 06:37:52;;;;;;;10.45;4.45;;;;;;;13.92;87.10;101744.69;7365211;19;20014;-65
2023/05/12 06:40:25;;;;;;;9.10;3.95;;;;;;;13.94;87.93;101747.22;7359721;19;20018;-65
2023/05/12 06:42:54;;;;;;;6.22;3.55;;;;;;;14.00;87.95;101744.78;7365645;19;20035;-66
2023/05/12 06:45:27;;;;;;;8.40;3.50;;;;;;;14.04;86.13;101743.50;7359543;19;20007;-64
2023/05/12 06:47:56;;;;;;;;;;;;;;;14.13;86.60;101749.69;7362053;19;20014;-66
2023/05/12 06:50:27;;;;;;;5.93;2.45;;;;;;;14.19;86.49;101749.06;7360259;19;19962;-64
2023/05/12 06:53:02;;;;;;;5.47;2.03;;;;;;;14.32;85.98;101746.03;7364430;19;20012;-64
2023/05/12 06:55:34;;;;;;;6.13;2.58;;;;;;;14.46;84.24;101748.16;7355810;19;20098;-64
2023/05/12 06:58:02;;;;;;;4.93;1.88;;;;;;;14.58;82.89;101749.53;7365962;19;20010;-69
2023/05/12 07:00:29;;;;;;;5.13;1.33;;;;;;;14.57;82.14;101755.84;7360947;19;20502;-64
2023/05/12 07:02:56;;;;;;;5.28;1.00;;;;;;;14.60;82.90;101750.22;7363588;19;20683;-66
2023/05/12 07:05:23;;;;;;;6.10;1.00;;;;;;;14.65;82.19;101755.06;7353818;19;20069;-64
2023/05/12 07:07:51;;;;;;;3.03;0.98;;;;;;;14.68;82.27;101755.56;7346660;19;20129;-65
2023/05/12 07:10:19;;;;;;;4.15;1.20;;;;;;;14.70;82.14;101753.59;7352141;19;20557;-66
2023/05/12 07:12:47;;;;;;;3.10;1.08;;;;;;;14.70;82.41;101760.72;7359509;19;20025;-64
2023/05/12 07:15:14;;;;;;;4.70;1.05;;;;;;;14.69;81.82;101769.66;7353941;19;20015;-65
2023/05/12 07:17:41;;;;;;;5.15;0.85;;;;;;;14.62;80.77;101758.88;7355104;19;20483;-64
2023/05/12 07:20:08;;;;;;;3.70;0.80;;;;;;;14.62;80.51;101766.81;7354058;19;20021;-65
2023/05/12 07:22:36;;;;;;;7.10;0.75;;;;;;;14.65;80.38;101761.19;7356859;19;20534;-66
2023/05/12 07:25:06;;;;;;;5.43;0.70;;;;;;;14.69;80.89;101769.66;7358165;19;21138;-64
2023/05/12 07:27:33;;;;;;;5.10;0.70;;;;;;;14.70;80.84;101764.19;7358759;19;20451;-66
2023/05/12 07:30:01;;;;;;;4.90;0.60;;;;;;;14.73;80.41;101763.06;7357111;19;20101;-65
2023/05/12 07:32:28;;;;;;;2.40;0.65;;;;;;;14.77;80.87;101749.34;7357090;19;20491;-64
2023/05/12 07:34:56;;;;;;;3.17;0.60;;;;;;;14.70;78.79;101756.25;7355086;19;20022;-64
2023/05/12 07:37:24;;;;;;;5.70;0.50;;;;;;;14.72;78.52;101764.88;7359113;19;20069;-65
2023/05/12 07:39:53;;;;;;;4.25;0.85;;;;;;;14.76;77.80;101762.75;7358727;19;20018;-66
2023/05/12 07:42:21;;;;;;;2.22;0.70;;;;;;;14.82;78.52;101768.25;7362136;19;20018;-65
2023/05/12 07:44:48;;;;;;;3.55;0.50;;;;;;;15.06;78.25;101761.41;7361056;19;20051;-65
2023/05/12 07:47:15;;;;;;;3.20;0.60;;;;;;;15.47;77.54;101757.09;7355522;19;20408;-64
2023/05/12 07:49:45;;;;;;;4.10;0.60;;;;;;;15.90;74.23;101758.72;7360440;19;20848;-65
2023/05/12 07:52:12;;;;;;;6.80;0.90;;;;;;;16.04;73.84;101761.53;7360275;19;20011;-67
2023/05/12 07:54:40;;;;;;;6.18;0.60;;;;;;;16.14;74.19;101764.03;7360495;19;21692;-66
2023/05/12 07:57:07;;;;;;;5.55;1.00;;;;;;;16.29;73.44;101754.41;7359492;19;21752;-65
2023/05/12 07:59:34;;;;;;;4.72;0.68;;;;;;;16.38;73.33;101771.97;7359308;19;20010;-64
2023/05/12 08:02:02;;;;;;;2.85;0.60;;;;;;;16.43;73.36;101767.00;7358214;19;20719;-67
2023/05/12 08:04:29;;;;;;;3.67;0.65;;;;;;;16.38;73.37;101766.66;7361093;19;20141;-66
2023/05/12 08:06:57;;;;;;;4.20;0.70;;;;;;;16.23;72.79;101776.31;7362054;19;20409;-66
2023/05/12 08:09:25;;;;;;;3.08;0.50;;;;;;;16.19;72.22;101770.50;7362451;19;20050;-65
2023/05/12 08:11:53;;;;;;;4.22;0.50;;;;;;;16.18;72.97;101775.97;7361905;19;20514;-64
2023/05/12 08:14:21;;;;;;;3.35;0.50;;;;;;;16.08;72.13;101772.66;7362139;19;20014;-65
2023/05/12 08:16:48;;;;;;;5.85;0.80;;;;;;;15.99;71.94;101773.66;7358082;19;20022;-65
2023/05/12 08:19:16;;;;;;;4.82;0.50;;;;;;;16.00;72.10;101770.00;7362311;19;20021;-65
2023/05/12 08:21:43;;;;;;;3.22;0.80;;;;;;;16.10;72.90;101766.16;7358593;19;20019;-65
2023/05/12 08:24:10;;;;;;;1.45;0.50;;;;;;;16.37;71.91;101766.81;7361941;19;20086;-67
2023/05/12 08:26:37;;;;;;;4.72;0.73;;;;;;;16.43;71.27;101767.00;7359982;19;20022;-66
2023/05/12 08:29:05;;;;;;;8.70;0.82;;;;;;;16.47;71.60;101764.81;7361184;19;21860;-64
2023/05/12 08:31:32;;;;;;;3.55;0.50;;;;;;;16.47;72.52;101768.31;7359573;19;20423;-65
2023/05/12 08:34:00;;;;;;;4.75;1.00;;;;;;;16.56;72.25;101780.59;7360231;19;20015;-66
2023/05/12 08:36:37;;;;;;;3.13;0.73;;;;;;;16.55;71.49;101780.78;7362438;19;20040;-65
2023/05/12 08:39:04;;;;;;;2.13;0.63;;;;;;;16.45;70.86;101775.63;7359607;19;20010;-65
2023/05/12 08:41:43;;;;;;;4.97;0.70;;;;;;;16.34;71.16;101775.13;7361390;19;20050;-64
2023/05/12 08:44:11;;;;;;;4.10;0.50;;;;;;;16.26;71.37;101762.69;7360717;19;20680;-65
2023/05/12 08:46:39;;;;;;;7.72;0.90;;;;;;;16.04;71.87;101772.16;7358984;19;20015;-66
2023/05/12 08:49:11;;;;;;;7.10;0.70;;;;;;;15.89;72.36;101779.09;7362900;19;20010;-64
2023/05/12 08:51:40;;;;;;;2.53;0.50;;;;;;;15.93;72.94;101777.78;7362346;19;20030;-65
2023/05/12 08:54:09;;;;;;;5.00;0.98;;;;;;;15.98;72.71;101779.94;7362281;19;21012;-66
2023/05/12 08:56:38;;;;;;;4.43;0.65;;;;;;;15.98;72.71;101788.75;7359479;19;20010;-65
2023/05/12 08:59:09;;;;;;;3.30;0.52;;;;;;;16.10;72.16;101775.97;7359977;19;20048;-64
2023/05/12 09:01:41;;;;;;;2.22;0.32;;;;;;;16.20;71.80;101780.09;7358914;19;20404;-64
2023/05/12 09:04:09;;;;;;;3.67;0.80;;;;;;;16.44;70.14;101783.78;7359137;19;20023;-67
2023/05/12 09:06:36;;;;;;;3.45;0.60;;;;;;;16.24;70.67;101780.63;7359624;19;20022;-66
2023/05/12 09:09:03;;;;;;;3.85;0.73;;;;;;;16.23;70.86;101771.81;7360665;19;20094;-65
2023/05/12 09:11:31;;;;;;;2.95;0.30;;;;;;;16.22;71.07;101775.47;7360177;19;20091;-65
2023/05/12 09:14:09;;;;;;;2.88;0.70;;;;;;;15.76;72.04;101798.16;7362115;19;20520;-65
2023/05/12 09:16:42;;;;;;;3.58;0.40;;;;;;;15.71;72.50;101783.69;7360447;19;20758;-64
2023/05/12 09:19:09;;;;;;;3.10;0.47;;;;;;;15.69;72.58;101785.72;7360903;19;20026;-64
2023/05/12 09:21:37;;;;;;;2.35;0.40;;;;;;;15.71;72.80;101789.00;7356511;19;20825;-64
2023/05/12 09:24:06;;;;;;;3.22;0.40;;;;;;;15.66;72.20;101786.84;7362829;19;20027;-64
2023/05/12 09:26:44;;;;;;;1.92;0.40;;;;;;;15.62;73.09;101792.63;7358030;19;20019;-65
2023/05/12 09:29:12;;;;;;;7.88;0.63;;;;;;;15.59;71.94;101793.81;7359339;19;20014;-65
2023/05/12 09:31:57;;;;;;;3.83;0.60;;;;;;;15.47;72.33;101795.06;7359450;19;20063;-67
2023/05/12 09:34:29;;;;;;;4.95;0.40;;;;;;;15.24;72.71;101800.09;7359823;19;20018;-64
2023/05/12 09:37:00;;;;;;;1.93;0.40;;;;;;;15.12;73.53;101801.38;7361133;19;20110;-65
2023/05/12 09:39:32;;;;;;;1.90;0.50;;;;;;;15.08;74.21;101799.19;7361095;19;20101;-66
2023/05/12 09:41:59;;;;;;;5.10;1.20;;;;;;;15.05;74.48;101792.38;7366930;19;20720;-66
2023/05/12 09:44:28;;;;;;;2.53;0.50;;;;;;;15.11;74.84;101810.31;7364664;19;20019;-66
2023/05/12 09:47:04;;;;;;;5.18;0.45;;;;;;;15.13;74.01;101805.69;7364360;19;20039;-64
2023/05/12 09:49:32;;;;;;;5.03;0.57;;;;;;;15.13;74.26;101807.50;7363176;19;20019;-65
2023/05/12 09:51:59;;;;;;;2.63;0.50;;;;;;;15.15;74.17;101829.38;7366461;19;20056;-65
2023/05/12 09:54:28;;;;;;;4.60;0.50;;;;;;;15.10;74.01;101823.72;7367030;19;20043;-69
2023/05/12 09:57:00;;;;;;;2.97;0.50;;;;;;;14.94;74.46;101813.84;7367825;19;20211;-66
2023/05/12 09:59:32;;;;;;;2.63;0.47;;;;;;;14.81;74.53;101824.88;7362515;19;20015;-66
2023/05/12 10:02:03;;;;;;;3.58;0.50;;;;;;;14.76;75.31;101824.53;7364405;19;20018;-66
2023/05/12 10:04:38;;;;;;;3.05;0.50;;;;;;;14.63;75.67;101821.44;7368182;19;20670;-66
2023/05/12 10:07:13;;;;;;;5.20;0.50;;;;;;;14.54;76.90;101820.53;7367369;19;20625;-64
2023/05/12 10:09:43;;;;;;;2.10;0.50;;;;;;;14.56;76.60;101823.06;7365581;19;20015;-66
2023/05/12 10:12:10;;;;;;;3.15;0.40;;;;;;;14.57;77.25;101815.94;7366062;19;20101;-64
2023/05/12 10:14:37;;;;;;;2.70;0.40;;;;;;;14.60;77.17;101819.09;7365480;19;21791;-65
2023/05/12 10:17:07;;;;;;;1.67;0.40;;;;;;;14.55;77.75;101829.31;7364152;19;20723;-66
2023/05/12 10:19:37;;;;;;;4.63;0.50;;;;;;;14.56;78.16;101833.66;7364686;19;21732;-63
2023/05/12 10:22:06;;;;;;;1.42;0.40;;;;;;;14.52;78.86;101825.19;7367207;19;20617;-65
2023/05/12 10:24:35;;;;;;;5.47;0.50;;;;;;;14.56;79.06;101831.00;7364966;19;20029;-64
2023/05/12 10:27:05;;;;;;;2.88;0.38;;;;;;;14.52;78.95;101825.19;7365046;19;20330;-65
2023/05/12 10:29:33;;;;;;;2.28;0.30;;;;;;;14.58;79.61;101838.78;7365648;19;20385;-68
2023/05/12 10:32:01;;;;;;;3.15;0.40;;;;;;;14.62;79.64;101830.38;7364790;19;20022;-64
2023/05/12 10:34:32;;;;;;;5.55;0.40;;;;;;;14.55;78.74;101839.91;7365143;19;20078;-66
2023/05/12 10:37:07;;;;;;;2.55;0.95;;;;;;;14.49;79.53;101825.47;7367106;19;20502;-64
2023/05/12 10:39:50;;;;;;;4.43;0.40;;;;;;;14.43;80.58;101818.13;7363908;19;20113;-65
2023/05/12 10:42:24;;;;;;;2.67;0.50;;;;;;;14.40;81.37;101823.75;7364843;19;20075;-64
2023/05/12 10:44:53;;;;;;;3.05;0.40;;;;;;;14.34;82.56;101816.38;7357185;19;20030;-63
2023/05/12 10:47:35;;;;;;;2.50;0.40;;;;;;;14.37;83.85;101802.88;7364166;19;20018;-65
2023/05/12 10:50:02;;;;;;;2.63;0.30;;;;;;;14.42;83.51;101805.06;7364606;19;20010;-63
2023/05/12 10:52:29;;;;;;;1.75;0.73;;;;;;;14.45;83.94;101808.22;7363709;19;20494;-66
2023/05/12 10:55:01;;;;;;;2.40;0.35;;;;;;;14.43;83.39;101801.41;7367678;19;20173;-64
2023/05/12 10:57:30;;;;;;;1.98;0.40;;;;;;;14.49;84.66;101804.28;7364107;19;20051;-66
2023/05/12 10:59:59;;;;;;;5.28;0.40;;;;;;;14.54;84.00;101798.53;7364185;19;20043;-66
2023/05/12 11:02:31;;;;;;;3.47;0.40;;;;;;;14.54;83.62;101796.72;7365968;19;20086;-65
2023/05/12 11:05:10;;;;;;;1.30;0.30;;;;;;;14.49;83.87;101803.44;7360524;19;20022;-65
2023/05/12 11:07:49;;;;;;;3.40;0.40;;;;;;;14.45;84.07;101792.34;7365667;19;20015;-64
2023/05/12 11:10:18;;;;;;;4.18;0.40;;;;;;;14.48;84.55;101788.53;7361675;19;20019;-65
2023/05/12 11:12:48;;;;;;;2.28;0.40;;;;;;;14.50;84.54;101797.16;7364144;19;20056;-65
2023/05/12 11:15:16;;;;;;;1.60;0.40;;;;;;;14.55;84.97;101781.66;7361991;19;20893;-64
2023/05/12 11:17:45;;;;;;;3.20;0.43;;;;;;;14.51;84.70;101781.13;7364987;19;20046;-64
2023/05/12 11:20:25;;;;;;;3.80;0.40;;;;;;;14.45;84.74;101792.34;7362820;19;20011;-64
2023/05/12 11:22:55;;;;;;;2.97;0.73;;;;;;;14.44;84.83;101795.13;7364551;19;20022;-66
2023/05/12 11:25:28;;;;;;;4.20;0.60;;;;;;;14.39;85.40;101794.75;7364172;19;20464;-64
2023/05/12 11:27:55;;;;;;;2.47;0.30;;;;;;;14.38;85.40;101787.81;7363189;19;20048;-65
2023/05/12 11:30:22;;;;;;;3.70;0.40;;;;;;;14.33;86.05;101793.53;7360069;19;20782;-64